Time;durP1;ratioP1;P1;durP2;ratioP2;P2;SDS_P1;SDS_P2;PMS_P1;PMS_P2;Temp;Humidity;BMP_temperature;BMP_pressure;BME280_temperature;BME280_humidity;BME280_pressure;Samples;Min_cycle;Max_cycle;Signal;HPM_P1;HPM_P2
2022/03/27 15:22:08;;;;;;;;;;;;;;;20.42;39.13;101621.88;4967650;28;1645;-89
2022/03/27 15:24:50;;;;;;;;;;;;;;;20.92;39.85;101625.22;4973579;28;1772;-89
2022/03/27 15:27:44;;;;;;;;;;;;;;;20.11;41.33;101621.84;4962335;28;1456;-87
2022/03/27 15:30:17;;;;;;;;;;;;;;;19.70;41.07;101622.06;4971635;28;1503;-88
2022/03/27 15:32:43;;;;;;;;;;;;;;;19.16;42.75;101618.25;4974382;28;1241;-87
2022/03/27 15:35:08;;;;;;;;;;;;;;;19.94;40.79;101622.56;4972744;28;1867;-88
2022/03/27 15:37:37;;;;;;;;;;;;;;;20.98;38.57;101610.00;4973051;28;1972;-88
2022/03/27 15:40:13;;;;;;;;;;;;;;;20.54;38.49;101620.16;4973292;28;1260;-88
2022/03/27 15:42:38;;;;;;;;;;;;;;;19.95;40.71;101611.13;4972966;28;1389;-85
2022/03/27 15:45:13;;;;;;;;;;;;;;;20.07;41.26;101612.53;4972394;28;1272;-87
2022/03/27 15:48:04;;;;;;;;;;;;;;;20.31;40.35;101607.44;4972666;28;1483;-87
2022/03/27 15:50:29;;;;;;;;;;;;;;;22.07;36.72;101600.41;4969937;28;1496;-87
2022/03/27 15:53:09;;;;;;;;;;;;;;;21.27;38.24;101599.09;4972563;28;2058;-87
2022/03/27 15:55:35;;;;;;;;;;;;;;;19.89;41.41;101604.06;4972585;28;1225;-88
2022/03/27 15:58:00;;;;;;;;;;;;;;;20.51;39.81;101603.28;4972955;28;1949;-87
2022/03/27 16:00:26;;;;;;;;;;;;;;;19.79;40.49;101595.97;4977571;28;1247;-88
2022/03/27 16:12:21;;;;;;;;;;;;;;;21.21;38.56;101585.66;4955611;29;1677;-88
2022/03/27 16:14:52;;;;;;;;;;;;;;;21.09;38.64;101589.91;4950696;29;1353;-88
2022/03/27 16:17:20;;;;;;;;;;;;;;;21.22;39.45;101590.09;4957820;29;1895;-88
2022/03/27 16:19:45;;;;;;;;;;;;;;;21.63;38.08;101586.84;4969045;28;1297;-87
2022/03/27 16:22:55;;;;;;;;;;;;;;;21.34;39.88;101584.72;4977505;28;1376;-87
2022/03/27 16:28:32;;;;;;;;;;;;;;;21.12;39.20;101589.22;4974172;28;1419;-87
2022/03/27 16:31:09;;;;;;;;;;;;;;;21.38;38.16;101589.28;4972856;28;1300;-88
2022/03/27 16:34:05;;;;;;;;;;;;;;;20.57;40.42;101591.72;4975849;28;1320;-88
2022/03/27 16:36:31;;;;;;;;;;;;;;;19.87;42.00;101602.72;4975545;28;1898;-87
2022/03/27 16:38:56;;;;;;;;;;;;;;;19.76;42.79;101588.28;4975930;28;1366;-88
2022/03/27 16:41:24;;;;;;;;;;;;;;;19.32;43.34;101588.19;4975490;28;1383;-86
2022/03/27 16:47:31;;;;;;;;;;;;;;;20.63;41.66;101587.63;4976531;28;1788;-87
2022/03/27 16:49:57;;;;;;;;;;;;;;;19.59;43.37;101588.97;4958259;28;2089;-87
2022/03/27 17:01:09;;;;;;;;;;;;;;;17.13;50.62;101599.66;4974201;28;1699;-86
2022/03/27 17:04:04;;;;;;;;;;;;;;;;;;;;;
2022/03/27 17:09:29;;;;;;;;;;;;;;;16.61;52.25;101590.34;4984402;28;1815;-89
2022/03/27 17:12:02;;;;;;;;;;;;;;;16.57;52.19;101596.75;4974748;28;1289;-88
2022/03/27 17:14:27;;;;;;;;;;;;;;;16.40;52.39;101588.09;4975155;28;1482;-90
2022/03/27 17:16:52;;;;;;;;;;;;;;;16.21;51.86;101610.09;4974954;28;1956;-89
2022/03/27 17:19:18;;;;;;;;;;;;;;;16.21;52.54;101604.56;4960261;28;1465;-88
2022/03/27 17:24:48;;;;;;;;;;;;;;;15.86;54.41;101606.53;4959150;28;1562;-87
2022/03/27 17:27:15;;;;;;;;;;;;;;;15.79;54.29;101599.72;4974890;28;1825;-89
2022/03/27 17:29:42;;;;;;;;;;;;;;;15.67;54.92;101608.34;4972048;28;1260;-88
2022/03/27 17:32:10;;;;;;;;;;;;;;;15.63;55.60;101603.69;4956134;28;1345;-88
2022/03/27 17:34:53;;;;;;;;;;;;;;;15.58;54.16;101610.06;4961803;28;1808;-89
2022/03/27 17:37:19;;;;;;;;;;;;;;;15.51;53.21;101604.03;4977349;28;1914;-89
2022/03/27 17:39:45;;;;;;;;;;;;;;;15.47;55.04;101614.81;4977588;28;1565;-89
2022/03/27 17:42:10;;;;;;;;;;;;;;;15.44;54.84;101611.81;4974350;28;1584;-89
2022/03/27 17:44:37;;;;;;;;;;;;;;;15.26;54.99;101620.75;4974062;28;1707;-89
2022/03/27 17:47:02;;;;;;;;;;;;;;;15.16;54.92;101613.34;4975352;28;1343;-89
2022/03/27 17:49:28;;;;;;;;;;;;;;;15.04;55.63;101619.22;4974899;28;1955;-88
2022/03/27 17:51:53;;;;;;;;;;;;;;;15.02;56.09;101613.16;4974695;28;1236;-89
2022/03/27 17:54:19;;;;;;;;;;;;;;;14.90;55.88;101611.81;4975928;28;801;-88
2022/03/27 17:56:44;;;;;;;;;;;;;;;14.81;56.05;101619.00;4974778;28;1937;-89
2022/03/27 17:59:10;;;;;;;;;;;;;;;14.73;57.12;101623.19;4974553;28;1753;-89
2022/03/27 18:01:35;;;;;;;;;;;;;;;14.59;56.82;101631.22;4975171;28;1410;-89
2022/03/27 18:04:00;;;;;;;;;;;;;;;14.73;58.13;101632.28;4974812;28;1902;-89
2022/03/27 18:06:25;;;;;;;;;;;;;;;14.65;57.38;101629.25;4974223;28;1679;-88
2022/03/27 18:08:51;;;;;;;;;;;;;;;14.55;57.78;101626.53;4971892;28;1204;-88
2022/03/27 18:11:17;;;;;;;;;;;;;;;14.46;57.75;101634.53;4973380;28;1404;-88
2022/03/27 18:13:43;;;;;;;;;;;;;;;14.31;59.47;101632.63;4971272;28;1393;-89
2022/03/27 18:16:08;;;;;;;;;;;;;;;14.33;59.11;101633.19;4978084;28;1951;-88
2022/03/27 18:18:37;;;;;;;;;;;;;;;14.19;59.52;101639.53;4973943;28;1563;-90
2022/03/27 18:21:02;;;;;;;;;;;;;;;13.94;59.96;101638.44;4970917;28;1483;-89
2022/03/27 18:23:27;;;;;;;;;;;;;;;13.74;60.38;101641.19;4980852;28;1578;-89
2022/03/27 18:25:53;;;;;;;;;;;;;;;13.84;61.11;101632.94;4974542;28;1852;-91
2022/03/27 18:28:18;;;;;;;;;;;;;;;13.89;59.82;101643.94;4973371;28;1565;-90
2022/03/27 18:30:44;;;;;;;;;;;;;;;13.72;60.22;101643.38;4973156;28;1712;-89
2022/03/27 18:33:10;;;;;;;;;;;;;;;13.31;61.65;101639.72;4972962;28;1382;-89
2022/03/27 18:35:52;;;;;;;;;;;;;;;13.24;62.25;101652.91;4969609;28;1516;-89
2022/03/27 18:38:29;;;;;;;;;;;;;;;13.46;61.01;101645.25;4972719;28;1960;-90
2022/03/27 18:40:58;;;;;;;;;;;;;;;13.46;61.35;101650.75;4974381;28;1427;-90
2022/03/27 18:43:29;;;;;;;;;;;;;;;13.44;60.94;101655.69;4965390;28;1869;-89
2022/03/27 18:45:57;;;;;;;;;;;;;;;13.26;61.18;101647.97;4963798;28;1598;-90
2022/03/27 18:48:23;;;;;;;;;;;;;;;13.22;62.55;101655.91;4967453;28;1642;-89
2022/03/27 18:50:49;;;;;;;;;;;;;;;13.08;62.03;101654.75;4973757;28;1625;-89
2022/03/27 18:56:08;;;;;;;;;;;;;;;12.65;62.71;101650.41;4953217;29;1622;-91
2022/03/27 18:58:43;;;;;;;;;;;;;;;12.62;62.85;101653.69;4945235;29;1528;-90
2022/03/27 19:04:28;;;;;;;;;;;;;;;12.20;63.80;101664.66;4891926;29;1496;-90
2022/03/27 19:13:48;;;;;;;;;;;;;;;12.11;64.96;101667.06;4876254;29;1853;-89
2022/03/27 19:16:16;;;;;;;;;;;;;;;12.22;63.78;101676.22;4819954;29;2014;-89
2022/03/27 19:25:06;;;;;;;;;;;;;;;11.84;63.69;101679.16;4896008;29;1743;-90
2022/03/27 20:17:50;;;;;;;;;;;;;;;9.39;67.77;101663.03;4974416;26;1967;-89
2022/03/27 20:20:16;;;;;;;;;;;;;;;9.18;68.73;101665.63;4959581;28;1477;-88
2022/03/27 20:22:42;;;;;;;;;;;;;;;9.35;69.55;101659.13;4954362;28;1600;-89
2022/03/27 20:25:39;;;;;;;;;;;;;;;9.43;69.32;101664.22;4958318;29;1900;-89
2022/03/27 20:28:12;;;;;;;;;;;;;;;9.37;69.38;101662.44;4941771;29;1402;-89
2022/03/27 20:46:56;;;;;;;;;;;;;;;9.08;68.95;101660.78;4880432;29;649;-90
2022/03/27 20:49:44;;;;;;;;;;;;;;;;;;;;;
2022/03/27 20:56:13;;;;;;;;;;;;;;;9.41;68.61;101666.34;4923664;29;1352;-90
2022/03/27 21:02:23;;;;;;;;;;;;;;;8.96;68.34;101670.91;4805939;29;1331;-89
2022/03/27 21:05:19;;;;;;;;;;;;;;;8.76;69.71;101667.75;4795224;29;1397;-89
2022/03/27 21:08:19;;;;;;;;;;;;;;;8.73;69.05;101669.03;4782004;30;1389;-89
2022/03/27 21:10:58;;;;;;;;;;;;;;;8.30;70.16;101662.03;4770367;30;1428;-89
2022/03/27 21:13:51;;;;;;;;;;;;;;;;;;;;;
2022/03/27 21:16:17;;;;;;;;;;;;;;;8.54;69.69;101662.88;4858798;29;1982;-89
2022/03/27 21:18:43;;;;;;;;;;;;;;;8.57;70.59;101658.88;4887212;28;2020;-89
2022/03/27 21:34:04;;;;;;;;;;;;;;;8.35;70.33;101653.16;4974959;28;1274;-91
2022/03/27 21:36:29;;;;;;;;;;;;;;;8.13;70.42;101652.06;4976143;28;1973;-91
2022/03/27 21:38:54;;;;;;;;;;;;;;;8.07;70.73;101653.84;4975230;28;1812;-91
2022/03/27 21:41:20;;;;;;;;;;;;;;;8.12;69.94;101650.41;4975047;28;1300;-92
2022/03/27 21:43:45;;;;;;;;;;;;;;;7.87;70.57;101656.06;4975248;28;1320;-92
2022/03/27 21:46:10;;;;;;;;;;;;;;;7.91;71.43;101660.00;4975503;28;885;-92
2022/03/27 21:48:37;;;;;;;;;;;;;;;7.94;71.75;101668.53;4974950;28;1846;-91
2022/03/27 21:51:04;;;;;;;;;;;;;;;8.09;71.43;101650.88;4975045;28;1843;-92
2022/03/27 21:53:29;;;;;;;;;;;;;;;7.82;70.09;101655.97;4974655;28;1844;-91
2022/03/27 21:55:54;;;;;;;;;;;;;;;7.67;70.07;101641.91;4973948;28;1354;-93
2022/03/27 21:58:19;;;;;;;;;;;;;;;7.49;71.07;101648.25;4976077;28;1898;-91
2022/03/27 22:00:44;;;;;;;;;;;;;;;7.58;71.35;101646.88;4974523;28;1741;-92
2022/03/27 22:03:09;;;;;;;;;;;;;;;7.44;70.34;101638.06;4974425;28;1094;-91
2022/03/27 22:05:34;;;;;;;;;;;;;;;7.31;70.69;101638.28;4974710;28;1153;-91
2022/03/27 22:08:00;;;;;;;;;;;;;;;7.48;71.83;101641.19;4974717;28;1053;-91
2022/03/27 22:10:28;;;;;;;;;;;;;;;7.43;71.20;101630.97;4974703;28;1025;-91
2022/03/27 22:12:53;;;;;;;;;;;;;;;7.25;71.96;101639.19;4974493;28;1737;-91
2022/03/27 22:15:19;;;;;;;;;;;;;;;7.39;71.61;101634.41;4974583;28;1811;-91
2022/03/27 22:17:44;;;;;;;;;;;;;;;7.45;71.55;101633.47;4974323;28;1969;-91
2022/03/27 22:20:10;;;;;;;;;;;;;;;7.28;71.05;101627.00;4974414;28;1328;-92
2022/03/27 22:22:35;;;;;;;;;;;;;;;7.03;72.29;101625.25;4974445;28;1313;-92
2022/03/27 22:25:00;;;;;;;;;;;;;;;7.05;71.13;101625.03;4974237;28;1217;-91
2022/03/27 22:27:25;;;;;;;;;;;;;;;6.79;71.40;101618.84;4974271;28;1843;-91
2022/03/27 22:29:51;;;;;;;;;;;;;;;6.88;72.75;101616.66;4974117;28;1537;-91
2022/03/27 22:32:19;;;;;;;;;;;;;;;6.96;71.67;101619.06;4974054;28;1858;-92
2022/03/27 22:34:44;;;;;;;;;;;;;;;7.00;71.82;101622.97;4974069;28;1186;-92
2022/03/27 22:37:10;;;;;;;;;;;;;;;6.90;71.12;101614.50;4974171;28;1898;-91
2022/03/27 22:39:35;;;;;;;;;;;;;;;6.81;71.39;101616.72;4974139;28;1328;-92
2022/03/27 22:42:00;;;;;;;;;;;;;;;6.88;71.22;101624.00;4973950;28;1366;-91
2022/03/27 22:44:25;;;;;;;;;;;;;;;6.90;72.89;101611.78;4975223;28;1016;-92
2022/03/27 22:46:50;;;;;;;;;;;;;;;7.03;71.72;101611.63;4974129;28;1150;-92
2022/03/27 22:49:16;;;;;;;;;;;;;;;6.82;72.10;101603.94;4975262;28;1859;-92
2022/03/27 22:51:42;;;;;;;;;;;;;;;6.81;72.92;101608.56;4973853;28;1761;-91
2022/03/27 22:54:07;;;;;;;;;;;;;;;6.83;71.86;101609.16;4973881;28;1256;-92
2022/03/27 22:56:34;;;;;;;;;;;;;;;6.77;72.30;101607.38;4973941;28;1887;-91
2022/03/27 22:59:01;;;;;;;;;;;;;;;6.74;72.54;101601.53;4975231;28;813;-92
2022/03/27 23:01:26;;;;;;;;;;;;;;;6.67;73.08;101600.78;4974729;28;1895;-92
2022/03/27 23:03:51;;;;;;;;;;;;;;;6.72;73.60;101606.41;4973692;28;1169;-92
2022/03/27 23:06:16;;;;;;;;;;;;;;;6.83;72.67;101600.16;4974170;28;1258;-91
2022/03/27 23:08:41;;;;;;;;;;;;;;;6.95;72.49;101594.78;4973787;28;727;-92
2022/03/27 23:11:06;;;;;;;;;;;;;;;6.67;72.33;101598.06;4973960;28;1390;-92
2022/03/27 23:13:31;;;;;;;;;;;;;;;6.59;73.23;101598.38;4973525;28;1486;-92
2022/03/27 23:15:57;;;;;;;;;;;;;;;6.59;72.63;101601.09;4973619;28;1953;-92
2022/03/27 23:18:22;;;;;;;;;;;;;;;6.41;72.02;101599.22;4973396;28;1886;-92
2022/03/27 23:20:47;;;;;;;;;;;;;;;6.26;72.65;101587.88;4973254;28;1856;-92
2022/03/27 23:23:12;;;;;;;;;;;;;;;6.25;73.32;101589.75;4973568;28;1886;-91
2022/03/27 23:25:37;;;;;;;;;;;;;;;6.38;73.92;101584.16;4976643;28;972;-93
2022/03/27 23:28:03;;;;;;;;;;;;;;;6.35;72.76;101581.91;4975132;28;1843;-91
2022/03/27 23:30:28;;;;;;;;;;;;;;;6.30;71.91;101580.91;4975015;28;1800;-93
2022/03/27 23:32:54;;;;;;;;;;;;;;;6.10;72.14;101574.88;4976342;28;1780;-92
2022/03/27 23:35:19;;;;;;;;;;;;;;;6.03;74.01;101578.50;4974954;28;1508;-92
2022/03/27 23:37:44;;;;;;;;;;;;;;;6.20;74.04;101583.34;4974379;28;1961;-91
2022/03/27 23:40:10;;;;;;;;;;;;;;;6.28;72.32;101583.06;4974376;28;1895;-92
2022/03/27 23:42:38;;;;;;;;;;;;;;;6.04;71.77;101582.00;4973919;28;1899;-92
2022/03/27 23:45:03;;;;;;;;;;;;;;;6.13;73.73;101574.41;4973750;28;1157;-91
2022/03/27 23:47:29;;;;;;;;;;;;;;;6.08;73.16;101575.09;4973880;28;1238;-93
2022/03/27 23:49:54;;;;;;;;;;;;;;;6.01;71.71;101575.16;4973985;28;1308;-92
2022/03/27 23:52:19;;;;;;;;;;;;;;;6.08;71.83;101569.66;4973523;28;1287;-91
2022/03/27 23:54:44;;;;;;;;;;;;;;;5.95;71.95;101569.81;4973472;28;1058;-92
2022/03/27 23:57:09;;;;;;;;;;;;;;;5.80;74.21;101564.66;4973505;28;1956;-91
2022/03/27 23:59:35;;;;;;;;;;;;;;;5.95;74.02;101564.38;4973735;28;985;-92
